sensor_id;sensor_type;location;lat;lon;timestamp;P1;durP1;ratioP1;P2;durP2;ratioP2
5923;SDS011;2987;50.884;14.818;2022-08-05T00:00:07;5.27;;;4.80;;
5923;SDS011;2987;50.884;14.818;2022-08-05T00:02:34;6.40;;;5.23;;
5923;SDS011;2987;50.884;14.818;2022-08-05T00:05:01;5.20;;;4.80;;
5923;SDS011;2987;50.884;14.818;2022-08-05T00:07:28;5.63;;;5.20;;
5923;SDS011;2987;50.884;14.818;2022-08-05T00:09:54;5.23;;;4.80;;
5923;SDS011;2987;50.884;14.818;2022-08-05T00:12:21;5.97;;;4.67;;
5923;SDS011;2987;50.884;14.818;2022-08-05T00:14:47;5.37;;;4.87;;
5923;SDS011;2987;50.884;14.818;2022-08-05T00:17:14;5.33;;;4.90;;
5923;SDS011;2987;50.884;14.818;2022-08-05T00:19:40;5.53;;;5.00;;
5923;SDS011;2987;50.884;14.818;2022-08-05T00:22:06;6.27;;;4.97;;
5923;SDS011;2987;50.884;14.818;2022-08-05T00:24:32;5.40;;;4.90;;
5923;SDS011;2987;50.884;14.818;2022-08-05T00:26:59;6.30;;;5.40;;
5923;SDS011;2987;50.884;14.818;2022-08-05T00:29:25;8.70;;;5.47;;
5923;SDS011;2987;50.884;14.818;2022-08-05T00:31:52;6.00;;;5.40;;
5923;SDS011;2987;50.884;14.818;2022-08-05T00:34:20;5.50;;;4.60;;
5923;SDS011;2987;50.884;14.818;2022-08-05T00:36:46;5.07;;;4.63;;
5923;SDS011;2987;50.884;14.818;2022-08-05T00:39:13;8.90;;;5.57;;
5923;SDS011;2987;50.884;14.818;2022-08-05T00:41:39;5.77;;;5.27;;
5923;SDS011;2987;50.884;14.818;2022-08-05T00:44:09;7.10;;;5.70;;
5923;SDS011;2987;50.884;14.818;2022-08-05T00:46:36;5.97;;;5.47;;
5923;SDS011;2987;50.884;14.818;2022-08-05T00:49:02;7.53;;;5.63;;
5923;SDS011;2987;50.884;14.818;2022-08-05T00:51:29;7.40;;;5.80;;
5923;SDS011;2987;50.884;14.818;2022-08-05T00:53:56;6.17;;;5.67;;
5923;SDS011;2987;50.884;14.818;2022-08-05T00:56:21;6.57;;;5.73;;
5923;SDS011;2987;50.884;14.818;2022-08-05T00:58:48;6.17;;;5.57;;
5923;SDS011;2987;50.884;14.818;2022-08-05T01:01:14;6.93;;;6.33;;
5923;SDS011;2987;50.884;14.818;2022-08-05T01:03:41;6.20;;;5.60;;
5923;SDS011;2987;50.884;14.818;2022-08-05T01:06:07;5.47;;;5.07;;
5923;SDS011;2987;50.884;14.818;2022-08-05T01:08:34;6.13;;;5.47;;
5923;SDS011;2987;50.884;14.818;2022-08-05T01:11:03;8.77;;;5.13;;
5923;SDS011;2987;50.884;14.818;2022-08-05T01:13:38;8.27;;;4.63;;
5923;SDS011;2987;50.884;14.818;2022-08-05T01:16:13;6.03;;;4.27;;
5923;SDS011;2987;50.884;14.818;2022-08-05T01:18:46;7.43;;;4.27;;
5923;SDS011;2987;50.884;14.818;2022-08-05T01:21:28;4.90;;;4.20;;
5923;SDS011;2987;50.884;14.818;2022-08-05T01:24:34;7.60;;;3.53;;
5923;SDS011;2987;50.884;14.818;2022-08-05T01:35:12;7.90;;;3.70;;
5923;SDS011;2987;50.884;14.818;2022-08-05T01:37:50;4.57;;;3.60;;
5923;SDS011;2987;50.884;14.818;2022-08-05T01:45:13;12.43;;;4.30;;
5923;SDS011;2987;50.884;14.818;2022-08-05T01:47:41;7.63;;;4.53;;
5923;SDS011;2987;50.884;14.818;2022-08-05T01:50:11;7.43;;;5.00;;
5923;SDS011;2987;50.884;14.818;2022-08-05T01:52:46;7.87;;;4.93;;
5923;SDS011;2987;50.884;14.818;2022-08-05T01:55:15;7.33;;;4.80;;
5923;SDS011;2987;50.884;14.818;2022-08-05T01:57:45;3.83;;;3.53;;
5923;SDS011;2987;50.884;14.818;2022-08-05T02:00:13;4.10;;;3.40;;
5923;SDS011;2987;50.884;14.818;2022-08-05T02:02:40;4.70;;;3.63;;
5923;SDS011;2987;50.884;14.818;2022-08-05T02:05:14;6.77;;;3.67;;
5923;SDS011;2987;50.884;14.818;2022-08-05T02:07:42;5.27;;;2.90;;
5923;SDS011;2987;50.884;14.818;2022-08-05T02:10:09;8.83;;;3.30;;
5923;SDS011;2987;50.884;14.818;2022-08-05T02:12:52;3.93;;;3.23;;
5923;SDS011;2987;50.884;14.818;2022-08-05T02:15:26;4.33;;;3.00;;
5923;SDS011;2987;50.884;14.818;2022-08-05T02:18:07;5.93;;;3.00;;
5923;SDS011;2987;50.884;14.818;2022-08-05T02:20:40;3.27;;;3.07;;
5923;SDS011;2987;50.884;14.818;2022-08-05T02:23:12;6.37;;;3.17;;
5923;SDS011;2987;50.884;14.818;2022-08-05T02:25:40;3.47;;;3.17;;
5923;SDS011;2987;50.884;14.818;2022-08-05T02:28:08;5.97;;;3.30;;
5923;SDS011;2987;50.884;14.818;2022-08-05T02:30:42;4.83;;;3.10;;
5923;SDS011;2987;50.884;14.818;2022-08-05T02:33:14;5.53;;;3.03;;
5923;SDS011;2987;50.884;14.818;2022-08-05T02:35:43;4.80;;;3.00;;
5923;SDS011;2987;50.884;14.818;2022-08-05T02:38:11;5.37;;;2.90;;
5923;SDS011;2987;50.884;14.818;2022-08-05T02:40:40;5.53;;;3.20;;
5923;SDS011;2987;50.884;14.818;2022-08-05T02:43:09;6.37;;;3.07;;
5923;SDS011;2987;50.884;14.818;2022-08-05T02:45:37;5.60;;;2.90;;
5923;SDS011;2987;50.884;14.818;2022-08-05T02:48:07;3.33;;;3.00;;
5923;SDS011;2987;50.884;14.818;2022-08-05T02:50:35;3.70;;;2.80;;
5923;SDS011;2987;50.884;14.818;2022-08-05T02:53:02;5.53;;;3.17;;
5923;SDS011;2987;50.884;14.818;2022-08-05T02:55:30;3.27;;;2.80;;
5923;SDS011;2987;50.884;14.818;2022-08-05T02:57:58;6.87;;;3.10;;
5923;SDS011;2987;50.884;14.818;2022-08-05T03:00:27;3.10;;;2.90;;
5923;SDS011;2987;50.884;14.818;2022-08-05T03:02:54;4.43;;;2.90;;
5923;SDS011;2987;50.884;14.818;2022-08-05T03:05:23;3.53;;;3.23;;
5923;SDS011;2987;50.884;14.818;2022-08-05T03:07:49;4.33;;;3.03;;
5923;SDS011;2987;50.884;14.818;2022-08-05T03:10:16;4.90;;;2.93;;
5923;SDS011;2987;50.884;14.818;2022-08-05T03:12:43;3.57;;;3.27;;
5923;SDS011;2987;50.884;14.818;2022-08-05T03:15:11;7.30;;;3.27;;
5923;SDS011;2987;50.884;14.818;2022-08-05T03:17:38;8.63;;;3.20;;
5923;SDS011;2987;50.884;14.818;2022-08-05T03:20:04;4.27;;;2.90;;
5923;SDS011;2987;50.884;14.818;2022-08-05T03:22:31;4.93;;;2.50;;
5923;SDS011;2987;50.884;14.818;2022-08-05T03:24:58;3.20;;;3.00;;
5923;SDS011;2987;50.884;14.818;2022-08-05T03:30:31;5.00;;;3.13;;
5923;SDS011;2987;50.884;14.818;2022-08-05T03:33:02;3.80;;;3.00;;
5923;SDS011;2987;50.884;14.818;2022-08-05T03:37:58;6.50;;;3.10;;
5923;SDS011;2987;50.884;14.818;2022-08-05T03:40:25;4.03;;;2.93;;
5923;SDS011;2987;50.884;14.818;2022-08-05T03:42:51;2.90;;;2.60;;
5923;SDS011;2987;50.884;14.818;2022-08-05T03:45:17;3.47;;;3.03;;
5923;SDS011;2987;50.884;14.818;2022-08-05T03:47:44;3.20;;;2.83;;
5923;SDS011;2987;50.884;14.818;2022-08-05T03:50:10;3.27;;;3.00;;
5923;SDS011;2987;50.884;14.818;2022-08-05T03:52:42;5.83;;;2.83;;
5923;SDS011;2987;50.884;14.818;2022-08-05T03:55:17;4.97;;;2.50;;
5923;SDS011;2987;50.884;14.818;2022-08-05T03:57:50;3.43;;;2.67;;
5923;SDS011;2987;50.884;14.818;2022-08-05T04:00:19;3.30;;;2.50;;
5923;SDS011;2987;50.884;14.818;2022-08-05T04:02:51;3.30;;;2.90;;
5923;SDS011;2987;50.884;14.818;2022-08-05T04:05:20;3.40;;;3.10;;
5923;SDS011;2987;50.884;14.818;2022-08-05T04:07:48;7.50;;;2.80;;
5923;SDS011;2987;50.884;14.818;2022-08-05T04:10:16;4.33;;;2.83;;
5923;SDS011;2987;50.884;14.818;2022-08-05T04:12:48;3.03;;;2.60;;
5923;SDS011;2987;50.884;14.818;2022-08-05T04:15:15;6.00;;;3.07;;
5923;SDS011;2987;50.884;14.818;2022-08-05T04:17:43;4.10;;;2.67;;
5923;SDS011;2987;50.884;14.818;2022-08-05T04:20:16;5.60;;;3.00;;
5923;SDS011;2987;50.884;14.818;2022-08-05T04:22:44;5.53;;;2.83;;
5923;SDS011;2987;50.884;14.818;2022-08-05T04:25:11;4.13;;;2.57;;
5923;SDS011;2987;50.884;14.818;2022-08-05T04:27:38;3.87;;;2.70;;
5923;SDS011;2987;50.884;14.818;2022-08-05T04:30:04;2.90;;;2.60;;
5923;SDS011;2987;50.884;14.818;2022-08-05T04:32:32;4.80;;;2.60;;
5923;SDS011;2987;50.884;14.818;2022-08-05T04:34:58;5.47;;;2.93;;
5923;SDS011;2987;50.884;14.818;2022-08-05T04:37:25;5.63;;;3.13;;
5923;SDS011;2987;50.884;14.818;2022-08-05T04:39:52;4.67;;;2.30;;
5923;SDS011;2987;50.884;14.818;2022-08-05T04:42:18;3.03;;;2.73;;
5923;SDS011;2987;50.884;14.818;2022-08-05T04:44:44;4.80;;;3.10;;
5923;SDS011;2987;50.884;14.818;2022-08-05T04:47:10;4.17;;;2.73;;
5923;SDS011;2987;50.884;14.818;2022-08-05T04:49:37;3.90;;;2.80;;
5923;SDS011;2987;50.884;14.818;2022-08-05T04:52:04;3.97;;;2.60;;
5923;SDS011;2987;50.884;14.818;2022-08-05T04:54:32;8.03;;;3.17;;
5923;SDS011;2987;50.884;14.818;2022-08-05T04:56:58;4.33;;;2.70;;
5923;SDS011;2987;50.884;14.818;2022-08-05T04:59:25;4.03;;;2.40;;
5923;SDS011;2987;50.884;14.818;2022-08-05T05:01:51;6.00;;;2.70;;
5923;SDS011;2987;50.884;14.818;2022-08-05T05:04:18;2.97;;;2.70;;
5923;SDS011;2987;50.884;14.818;2022-08-05T05:06:44;3.10;;;2.77;;
5923;SDS011;2987;50.884;14.818;2022-08-05T05:09:11;2.60;;;2.40;;
5923;SDS011;2987;50.884;14.818;2022-08-05T05:11:38;4.37;;;2.87;;
5923;SDS011;2987;50.884;14.818;2022-08-05T05:14:04;3.90;;;2.60;;
5923;SDS011;2987;50.884;14.818;2022-08-05T05:16:31;4.70;;;2.40;;
5923;SDS011;2987;50.884;14.818;2022-08-05T05:19:11;2.50;;;2.30;;
5923;SDS011;2987;50.884;14.818;2022-08-05T05:21:40;5.03;;;2.73;;
5923;SDS011;2987;50.884;14.818;2022-08-05T05:24:10;3.40;;;2.70;;
5923;SDS011;2987;50.884;14.818;2022-08-05T05:26:41;3.37;;;2.70;;
5923;SDS011;2987;50.884;14.818;2022-08-05T05:29:10;4.37;;;2.60;;
5923;SDS011;2987;50.884;14.818;2022-08-05T05:31:39;6.50;;;3.00;;
5923;SDS011;2987;50.884;14.818;2022-08-05T05:34:05;6.60;;;3.00;;
5923;SDS011;2987;50.884;14.818;2022-08-05T05:36:31;3.40;;;2.60;;
5923;SDS011;2987;50.884;14.818;2022-08-05T05:38:57;4.73;;;2.70;;
5923;SDS011;2987;50.884;14.818;2022-08-05T05:41:23;3.17;;;2.87;;
5923;SDS011;2987;50.884;14.818;2022-08-05T05:43:50;3.40;;;2.73;;
5923;SDS011;2987;50.884;14.818;2022-08-05T05:46:16;2.87;;;2.60;;
5923;SDS011;2987;50.884;14.818;2022-08-05T05:48:43;4.77;;;2.73;;
5923;SDS011;2987;50.884;14.818;2022-08-05T05:51:16;5.60;;;2.80;;
5923;SDS011;2987;50.884;14.818;2022-08-05T05:53:44;3.83;;;2.40;;
5923;SDS011;2987;50.884;14.818;2022-08-05T05:56:10;2.80;;;2.60;;
5923;SDS011;2987;50.884;14.818;2022-08-05T05:58:36;3.23;;;2.90;;
5923;SDS011;2987;50.884;14.818;2022-08-05T06:01:02;5.40;;;2.60;;
5923;SDS011;2987;50.884;14.818;2022-08-05T06:03:28;3.13;;;2.77;;
5923;SDS011;2987;50.884;14.818;2022-08-05T06:05:55;4.80;;;2.87;;
5923;SDS011;2987;50.884;14.818;2022-08-05T06:08:21;2.97;;;2.60;;
5923;SDS011;2987;50.884;14.818;2022-08-05T06:10:47;5.60;;;3.13;;
5923;SDS011;2987;50.884;14.818;2022-08-05T06:13:13;3.87;;;2.40;;
5923;SDS011;2987;50.884;14.818;2022-08-05T06:15:39;4.50;;;2.50;;
5923;SDS011;2987;50.884;14.818;2022-08-05T06:18:06;2.70;;;2.50;;
5923;SDS011;2987;50.884;14.818;2022-08-05T06:20:32;5.97;;;2.50;;
5923;SDS011;2987;50.884;14.818;2022-08-05T06:22:58;7.70;;;2.80;;
5923;SDS011;2987;50.884;14.818;2022-08-05T06:25:25;5.43;;;2.70;;
5923;SDS011;2987;50.884;14.818;2022-08-05T06:27:51;7.33;;;2.97;;
5923;SDS011;2987;50.884;14.818;2022-08-05T06:30:17;3.90;;;2.47;;
5923;SDS011;2987;50.884;14.818;2022-08-05T06:32:44;7.53;;;2.73;;
5923;SDS011;2987;50.884;14.818;2022-08-05T06:35:11;4.90;;;2.80;;
5923;SDS011;2987;50.884;14.818;2022-08-05T06:37:51;2.83;;;2.43;;
5923;SDS011;2987;50.884;14.818;2022-08-05T06:40:20;2.60;;;2.40;;
5923;SDS011;2987;50.884;14.818;2022-08-05T06:42:50;3.67;;;2.57;;
5923;SDS011;2987;50.884;14.818;2022-08-05T06:45:21;8.20;;;2.77;;
5923;SDS011;2987;50.884;14.818;2022-08-05T06:47:51;5.40;;;2.70;;
5923;SDS011;2987;50.884;14.818;2022-08-05T06:50:19;4.80;;;2.60;;
5923;SDS011;2987;50.884;14.818;2022-08-05T06:55:45;6.63;;;2.13;;
5923;SDS011;2987;50.884;14.818;2022-08-05T06:58:11;4.10;;;2.50;;
5923;SDS011;2987;50.884;14.818;2022-08-05T07:00:38;3.40;;;2.70;;
5923;SDS011;2987;50.884;14.818;2022-08-05T07:03:04;4.60;;;2.50;;
5923;SDS011;2987;50.884;14.818;2022-08-05T07:05:30;2.73;;;2.17;;
5923;SDS011;2987;50.884;14.818;2022-08-05T07:07:56;5.53;;;2.30;;
5923;SDS011;2987;50.884;14.818;2022-08-05T07:10:23;6.33;;;2.50;;
5923;SDS011;2987;50.884;14.818;2022-08-05T07:12:50;2.97;;;2.30;;
5923;SDS011;2987;50.884;14.818;2022-08-05T07:15:37;4.23;;;2.50;;
5923;SDS011;2987;50.884;14.818;2022-08-05T07:18:24;8.97;;;2.27;;
5923;SDS011;2987;50.884;14.818;2022-08-05T07:20:55;2.53;;;2.33;;
5923;SDS011;2987;50.884;14.818;2022-08-05T07:23:26;4.03;;;2.50;;
5923;SDS011;2987;50.884;14.818;2022-08-05T07:25:55;8.20;;;2.50;;
5923;SDS011;2987;50.884;14.818;2022-08-05T07:28:24;5.23;;;2.37;;
5923;SDS011;2987;50.884;14.818;2022-08-05T07:30:50;4.43;;;2.40;;
5923;SDS011;2987;50.884;14.818;2022-08-05T07:33:17;5.50;;;2.57;;
5923;SDS011;2987;50.884;14.818;2022-08-05T07:35:47;5.77;;;2.40;;
5923;SDS011;2987;50.884;14.818;2022-08-05T07:38:23;6.43;;;2.50;;
5923;SDS011;2987;50.884;14.818;2022-08-05T07:40:50;5.23;;;2.47;;
5923;SDS011;2987;50.884;14.818;2022-08-05T07:43:16;2.67;;;2.47;;
5923;SDS011;2987;50.884;14.818;2022-08-05T07:45:42;3.97;;;2.20;;
5923;SDS011;2987;50.884;14.818;2022-08-05T07:48:09;2.53;;;2.33;;
5923;SDS011;2987;50.884;14.818;2022-08-05T07:50:42;2.73;;;2.53;;
5923;SDS011;2987;50.884;14.818;2022-08-05T07:53:08;4.23;;;2.30;;
5923;SDS011;2987;50.884;14.818;2022-08-05T07:55:34;5.23;;;2.40;;
5923;SDS011;2987;50.884;14.818;2022-08-05T07:58:00;5.33;;;2.60;;
5923;SDS011;2987;50.884;14.818;2022-08-05T08:00:26;7.10;;;2.38;;
5923;SDS011;2987;50.884;14.818;2022-08-05T08:02:53;5.20;;;2.63;;
5923;SDS011;2987;50.884;14.818;2022-08-05T08:05:19;3.00;;;2.50;;
5923;SDS011;2987;50.884;14.818;2022-08-05T08:07:45;2.53;;;2.28;;
5923;SDS011;2987;50.884;14.818;2022-08-05T08:10:12;4.10;;;2.20;;
5923;SDS011;2987;50.884;14.818;2022-08-05T08:12:38;7.07;;;2.50;;
5923;SDS011;2987;50.884;14.818;2022-08-05T08:15:05;5.40;;;2.30;;
5923;SDS011;2987;50.884;14.818;2022-08-05T08:17:33;6.80;;;2.50;;
5923;SDS011;2987;50.884;14.818;2022-08-05T08:20:20;5.82;;;2.30;;
5923;SDS011;2987;50.884;14.818;2022-08-05T08:22:56;3.25;;;2.47;;
5923;SDS011;2987;50.884;14.818;2022-08-05T08:25:27;3.83;;;2.35;;
5923;SDS011;2987;50.884;14.818;2022-08-05T08:27:55;2.40;;;2.20;;
5923;SDS011;2987;50.884;14.818;2022-08-05T08:30:23;3.22;;;2.20;;
5923;SDS011;2987;50.884;14.818;2022-08-05T08:33:05;6.07;;;2.30;;
5923;SDS011;2987;50.884;14.818;2022-08-05T08:35:37;2.58;;;2.20;;
5923;SDS011;2987;50.884;14.818;2022-08-05T08:38:07;5.00;;;2.05;;
5923;SDS011;2987;50.884;14.818;2022-08-05T08:40:36;3.83;;;2.15;;
5923;SDS011;2987;50.884;14.818;2022-08-05T08:43:09;5.57;;;2.30;;
5923;SDS011;2987;50.884;14.818;2022-08-05T08:45:41;2.60;;;2.40;;
5923;SDS011;2987;50.884;14.818;2022-08-05T08:48:10;4.55;;;2.40;;
5923;SDS011;2987;50.884;14.818;2022-08-05T08:50:38;2.92;;;2.15;;
5923;SDS011;2987;50.884;14.818;2022-08-05T08:53:15;3.53;;;2.63;;
5923;SDS011;2987;50.884;14.818;2022-08-05T08:55:47;2.45;;;2.25;;
5923;SDS011;2987;50.884;14.818;2022-08-05T08:58:16;5.93;;;2.78;;
5923;SDS011;2987;50.884;14.818;2022-08-05T09:00:45;8.18;;;2.53;;
5923;SDS011;2987;50.884;14.818;2022-08-05T09:03:14;5.75;;;2.50;;
5923;SDS011;2987;50.884;14.818;2022-08-05T09:05:45;3.40;;;2.20;;
5923;SDS011;2987;50.884;14.818;2022-08-05T09:08:15;3.85;;;2.10;;
5923;SDS011;2987;50.884;14.818;2022-08-05T09:10:46;5.53;;;2.67;;
5923;SDS011;2987;50.884;14.818;2022-08-05T09:13:18;6.53;;;4.50;;
5923;SDS011;2987;50.884;14.818;2022-08-05T09:15:52;8.73;;;6.13;;
5923;SDS011;2987;50.884;14.818;2022-08-05T09:18:21;7.18;;;5.40;;
5923;SDS011;2987;50.884;14.818;2022-08-05T09:20:58;11.00;;;6.82;;
5923;SDS011;2987;50.884;14.818;2022-08-05T09:23:25;6.80;;;5.32;;
5923;SDS011;2987;50.884;14.818;2022-08-05T09:25:51;3.78;;;3.47;;
5923;SDS011;2987;50.884;14.818;2022-08-05T09:28:31;6.55;;;2.60;;
5923;SDS011;2987;50.884;14.818;2022-08-05T09:31:14;4.55;;;2.60;;
5923;SDS011;2987;50.884;14.818;2022-08-05T09:34:01;5.28;;;3.53;;
5923;SDS011;2987;50.884;14.818;2022-08-05T09:36:47;8.18;;;3.10;;
5923;SDS011;2987;50.884;14.818;2022-08-05T09:39:16;6.47;;;2.80;;
5923;SDS011;2987;50.884;14.818;2022-08-05T09:42:01;3.20;;;2.90;;
5923;SDS011;2987;50.884;14.818;2022-08-05T09:44:37;8.68;;;4.22;;
5923;SDS011;2987;50.884;14.818;2022-08-05T09:47:10;6.35;;;3.83;;
5923;SDS011;2987;50.884;14.818;2022-08-05T09:49:41;5.55;;;2.95;;
5923;SDS011;2987;50.884;14.818;2022-08-05T09:57:29;6.57;;;3.92;;
5923;SDS011;2987;50.884;14.818;2022-08-05T09:59:59;8.38;;;5.25;;
5923;SDS011;2987;50.884;14.818;2022-08-05T10:05:06;4.90;;;2.95;;
5923;SDS011;2987;50.884;14.818;2022-08-05T10:07:52;6.35;;;2.70;;
5923;SDS011;2987;50.884;14.818;2022-08-05T10:10:25;3.33;;;2.55;;
5923;SDS011;2987;50.884;14.818;2022-08-05T10:13:02;3.63;;;2.60;;
5923;SDS011;2987;50.884;14.818;2022-08-05T10:15:32;6.68;;;3.15;;
5923;SDS011;2987;50.884;14.818;2022-08-05T10:21:18;2.90;;;2.63;;
5923;SDS011;2987;50.884;14.818;2022-08-05T10:23:44;4.25;;;2.80;;
5923;SDS011;2987;50.884;14.818;2022-08-05T10:26:11;4.53;;;2.58;;
5923;SDS011;2987;50.884;14.818;2022-08-05T10:31:45;9.18;;;2.72;;
5923;SDS011;2987;50.884;14.818;2022-08-05T10:34:14;3.08;;;2.67;;
5923;SDS011;2987;50.884;14.818;2022-08-05T10:36:40;2.67;;;2.20;;
5923;SDS011;2987;50.884;14.818;2022-08-05T10:39:09;6.93;;;2.95;;
5923;SDS011;2987;50.884;14.818;2022-08-05T10:41:44;4.90;;;3.28;;
5923;SDS011;2987;50.884;14.818;2022-08-05T10:44:20;4.10;;;2.70;;
5923;SDS011;2987;50.884;14.818;2022-08-05T10:46:52;7.20;;;3.00;;
5923;SDS011;2987;50.884;14.818;2022-08-05T10:49:21;4.13;;;2.92;;
5923;SDS011;2987;50.884;14.818;2022-08-05T10:51:51;5.88;;;3.10;;
5923;SDS011;2987;50.884;14.818;2022-08-05T10:54:23;3.80;;;2.95;;
5923;SDS011;2987;50.884;14.818;2022-08-05T10:57:11;4.88;;;3.33;;
5923;SDS011;2987;50.884;14.818;2022-08-05T11:00:05;5.13;;;3.35;;
5923;SDS011;2987;50.884;14.818;2022-08-05T11:02:37;4.38;;;2.97;;
5923;SDS011;2987;50.884;14.818;2022-08-05T11:05:40;7.07;;;3.30;;
5923;SDS011;2987;50.884;14.818;2022-08-05T11:08:26;3.67;;;3.17;;
5923;SDS011;2987;50.884;14.818;2022-08-05T11:10:53;5.13;;;2.85;;
5923;SDS011;2987;50.884;14.818;2022-08-05T11:18:47;7.38;;;3.70;;
5923;SDS011;2987;50.884;14.818;2022-08-05T11:21:33;7.45;;;3.47;;
5923;SDS011;2987;50.884;14.818;2022-08-05T11:26:33;3.97;;;3.40;;
5923;SDS011;2987;50.884;14.818;2022-08-05T11:29:01;8.18;;;3.53;;
5923;SDS011;2987;50.884;14.818;2022-08-05T11:31:32;5.88;;;3.47;;
5923;SDS011;2987;50.884;14.818;2022-08-05T11:34:00;5.18;;;3.38;;
5923;SDS011;2987;50.884;14.818;2022-08-05T11:41:49;5.53;;;4.13;;
5923;SDS011;2987;50.884;14.818;2022-08-05T11:46:49;5.65;;;3.70;;
5923;SDS011;2987;50.884;14.818;2022-08-05T11:49:17;4.38;;;3.35;;
5923;SDS011;2987;50.884;14.818;2022-08-05T11:51:48;13.15;;;3.63;;
5923;SDS011;2987;50.884;14.818;2022-08-05T11:54:24;6.55;;;3.17;;
5923;SDS011;2987;50.884;14.818;2022-08-05T11:56:53;4.25;;;3.13;;
5923;SDS011;2987;50.884;14.818;2022-08-05T11:59:22;5.95;;;3.40;;
5923;SDS011;2987;50.884;14.818;2022-08-05T12:01:51;4.55;;;3.30;;
5923;SDS011;2987;50.884;14.818;2022-08-05T12:04:25;6.53;;;3.53;;
5923;SDS011;2987;50.884;14.818;2022-08-05T12:06:53;7.10;;;3.67;;
5923;SDS011;2987;50.884;14.818;2022-08-05T12:09:24;5.95;;;2.97;;
5923;SDS011;2987;50.884;14.818;2022-08-05T12:11:53;7.30;;;3.13;;
5923;SDS011;2987;50.884;14.818;2022-08-05T12:14:20;5.68;;;3.17;;
5923;SDS011;2987;50.884;14.818;2022-08-05T12:16:48;5.53;;;3.00;;
5923;SDS011;2987;50.884;14.818;2022-08-05T12:22:26;4.80;;;3.10;;
5923;SDS011;2987;50.884;14.818;2022-08-05T12:24:54;3.22;;;2.80;;
5923;SDS011;2987;50.884;14.818;2022-08-05T12:27:23;4.50;;;2.85;;
5923;SDS011;2987;50.884;14.818;2022-08-05T12:30:08;4.20;;;2.67;;
5923;SDS011;2987;50.884;14.818;2022-08-05T12:32:44;7.47;;;2.75;;
5923;SDS011;2987;50.884;14.818;2022-08-05T12:35:15;7.05;;;2.42;;
5923;SDS011;2987;50.884;14.818;2022-08-05T12:37:44;4.00;;;2.47;;
5923;SDS011;2987;50.884;14.818;2022-08-05T12:40:18;5.53;;;2.72;;
5923;SDS011;2987;50.884;14.818;2022-08-05T12:42:52;3.80;;;2.40;;
5923;SDS011;2987;50.884;14.818;2022-08-05T12:45:23;3.10;;;2.72;;
5923;SDS011;2987;50.884;14.818;2022-08-05T12:47:53;5.88;;;2.53;;
5923;SDS011;2987;50.884;14.818;2022-08-05T12:50:22;5.35;;;2.72;;
5923;SDS011;2987;50.884;14.818;2022-08-05T12:52:54;5.45;;;2.80;;
5923;SDS011;2987;50.884;14.818;2022-08-05T12:55:25;10.27;;;2.75;;
5923;SDS011;2987;50.884;14.818;2022-08-05T12:57:53;3.25;;;2.67;;
5923;SDS011;2987;50.884;14.818;2022-08-05T13:00:22;10.23;;;2.92;;
5923;SDS011;2987;50.884;14.818;2022-08-05T13:02:55;6.10;;;2.92;;
5923;SDS011;2987;50.884;14.818;2022-08-05T13:05:29;6.80;;;3.05;;
5923;SDS011;2987;50.884;14.818;2022-08-05T13:08:12;8.55;;;3.10;;
5923;SDS011;2987;50.884;14.818;2022-08-05T13:10:45;10.35;;;3.15;;
5923;SDS011;2987;50.884;14.818;2022-08-05T13:13:11;3.15;;;2.80;;
5923;SDS011;2987;50.884;14.818;2022-08-05T13:15:38;3.85;;;2.90;;
5923;SDS011;2987;50.884;14.818;2022-08-05T13:18:05;8.82;;;3.00;;
5923;SDS011;2987;50.884;14.818;2022-08-05T13:20:33;4.35;;;2.90;;
5923;SDS011;2987;50.884;14.818;2022-08-05T13:23:00;5.65;;;3.10;;
5923;SDS011;2987;50.884;14.818;2022-08-05T13:25:29;10.30;;;3.13;;
5923;SDS011;2987;50.884;14.818;2022-08-05T13:27:58;5.93;;;3.05;;
5923;SDS011;2987;50.884;14.818;2022-08-05T13:30:31;5.60;;;3.50;;
5923;SDS011;2987;50.884;14.818;2022-08-05T13:33:00;4.45;;;2.80;;
5923;SDS011;2987;50.884;14.818;2022-08-05T13:35:29;6.68;;;3.28;;
5923;SDS011;2987;50.884;14.818;2022-08-05T13:37:55;7.35;;;3.20;;
5923;SDS011;2987;50.884;14.818;2022-08-05T13:40:22;11.73;;;3.10;;
5923;SDS011;2987;50.884;14.818;2022-08-05T13:42:48;7.93;;;3.10;;
5923;SDS011;2987;50.884;14.818;2022-08-05T13:45:14;6.07;;;3.10;;
5923;SDS011;2987;50.884;14.818;2022-08-05T13:47:40;10.38;;;3.20;;
5923;SDS011;2987;50.884;14.818;2022-08-05T13:50:07;5.75;;;3.00;;
5923;SDS011;2987;50.884;14.818;2022-08-05T13:52:33;3.38;;;2.80;;
5923;SDS011;2987;50.884;14.818;2022-08-05T13:54:59;8.43;;;3.50;;
5923;SDS011;2987;50.884;14.818;2022-08-05T13:57:25;3.33;;;3.00;;
5923;SDS011;2987;50.884;14.818;2022-08-05T13:59:52;3.70;;;3.10;;
5923;SDS011;2987;50.884;14.818;2022-08-05T14:02:19;5.88;;;3.00;;
5923;SDS011;2987;50.884;14.818;2022-08-05T14:04:49;4.47;;;3.30;;
5923;SDS011;2987;50.884;14.818;2022-08-05T14:07:42;5.90;;;3.40;;
5923;SDS011;2987;50.884;14.818;2022-08-05T14:10:12;5.80;;;3.08;;
5923;SDS011;2987;50.884;14.818;2022-08-05T14:12:44;6.93;;;3.28;;
5923;SDS011;2987;50.884;14.818;2022-08-05T14:15:12;7.05;;;3.63;;
5923;SDS011;2987;50.884;14.818;2022-08-05T14:17:38;6.03;;;3.03;;
5923;SDS011;2987;50.884;14.818;2022-08-05T14:20:05;5.20;;;2.95;;
5923;SDS011;2987;50.884;14.818;2022-08-05T14:22:32;5.00;;;3.33;;
5923;SDS011;2987;50.884;14.818;2022-08-05T14:25:00;3.72;;;2.97;;
5923;SDS011;2987;50.884;14.818;2022-08-05T14:27:26;7.00;;;3.28;;
5923;SDS011;2987;50.884;14.818;2022-08-05T14:29:52;8.13;;;3.08;;
5923;SDS011;2987;50.884;14.818;2022-08-05T14:32:19;8.27;;;3.30;;
5923;SDS011;2987;50.884;14.818;2022-08-05T14:34:48;5.50;;;3.10;;
5923;SDS011;2987;50.884;14.818;2022-08-05T14:37:14;15.00;;;3.78;;
5923;SDS011;2987;50.884;14.818;2022-08-05T14:39:41;21.27;;;3.85;;
5923;SDS011;2987;50.884;14.818;2022-08-05T14:42:08;12.80;;;3.90;;
5923;SDS011;2987;50.884;14.818;2022-08-05T14:44:34;35.33;;;4.50;;
5923;SDS011;2987;50.884;14.818;2022-08-05T14:47:00;7.13;;;3.90;;
5923;SDS011;2987;50.884;14.818;2022-08-05T14:49:26;10.55;;;3.95;;
5923;SDS011;2987;50.884;14.818;2022-08-05T14:51:52;6.78;;;3.38;;
5923;SDS011;2987;50.884;14.818;2022-08-05T14:54:18;10.60;;;3.90;;
5923;SDS011;2987;50.884;14.818;2022-08-05T14:56:49;10.20;;;3.67;;
5923;SDS011;2987;50.884;14.818;2022-08-05T14:59:16;4.45;;;3.20;;
5923;SDS011;2987;50.884;14.818;2022-08-05T15:01:43;3.70;;;3.00;;
5923;SDS011;2987;50.884;14.818;2022-08-05T15:04:09;7.28;;;3.55;;
5923;SDS011;2987;50.884;14.818;2022-08-05T15:06:37;7.78;;;3.65;;
5923;SDS011;2987;50.884;14.818;2022-08-05T15:09:08;6.65;;;3.30;;
5923;SDS011;2987;50.884;14.818;2022-08-05T15:11:41;8.25;;;3.92;;
5923;SDS011;2987;50.884;14.818;2022-08-05T15:14:10;7.03;;;3.72;;
5923;SDS011;2987;50.884;14.818;2022-08-05T15:16:39;4.88;;;3.45;;
5923;SDS011;2987;50.884;14.818;2022-08-05T15:19:08;6.40;;;3.42;;
5923;SDS011;2987;50.884;14.818;2022-08-05T15:21:34;6.97;;;3.15;;
5923;SDS011;2987;50.884;14.818;2022-08-05T15:24:00;6.97;;;3.00;;
5923;SDS011;2987;50.884;14.818;2022-08-05T15:26:27;6.47;;;3.22;;
5923;SDS011;2987;50.884;14.818;2022-08-05T15:28:53;5.20;;;3.38;;
5923;SDS011;2987;50.884;14.818;2022-08-05T15:31:19;3.78;;;3.28;;
5923;SDS011;2987;50.884;14.818;2022-08-05T15:33:46;7.50;;;3.17;;
5923;SDS011;2987;50.884;14.818;2022-08-05T15:36:12;12.40;;;3.47;;
5923;SDS011;2987;50.884;14.818;2022-08-05T15:38:38;7.03;;;3.22;;
5923;SDS011;2987;50.884;14.818;2022-08-05T15:41:05;4.95;;;3.53;;
5923;SDS011;2987;50.884;14.818;2022-08-05T15:43:31;5.68;;;3.40;;
5923;SDS011;2987;50.884;14.818;2022-08-05T15:45:58;9.90;;;3.38;;
5923;SDS011;2987;50.884;14.818;2022-08-05T15:48:24;13.43;;;3.55;;
5923;SDS011;2987;50.884;14.818;2022-08-05T15:50:50;13.30;;;3.67;;
5923;SDS011;2987;50.884;14.818;2022-08-05T15:53:16;5.88;;;3.30;;
5923;SDS011;2987;50.884;14.818;2022-08-05T15:55:43;5.72;;;3.30;;
5923;SDS011;2987;50.884;14.818;2022-08-05T15:58:09;3.55;;;3.10;;
5923;SDS011;2987;50.884;14.818;2022-08-05T16:00:35;14.63;;;3.10;;
5923;SDS011;2987;50.884;14.818;2022-08-05T16:03:01;9.25;;;3.00;;
5923;SDS011;2987;50.884;14.818;2022-08-05T16:05:28;11.18;;;3.17;;
5923;SDS011;2987;50.884;14.818;2022-08-05T16:07:54;8.43;;;3.10;;